Time;durP1;ratioP1;P1;durP2;ratioP2;P2;SDS_P1;SDS_P2;PMS_P1;PMS_P2;Temp;Humidity;BMP_temperature;BMP_pressure;BME280_temperature;BME280_humidity;BME280_pressure;Samples;Min_cycle;Max_cycle;Signal;HPM_P1;HPM_P2
2021/06/26 00:01:00;;;;;;;6.15;3.47;;;;;;;16.80;78.74;100577.22;5033301;28;20021;-89
2021/06/26 00:03:28;;;;;;;9.27;2.70;;;;;;;16.79;78.97;100580.88;5033250;28;20056;-89
2021/06/26 00:05:54;;;;;;;8.60;2.30;;;;;;;16.67;77.64;100576.69;5033219;28;20092;-89
2021/06/26 00:08:20;;;;;;;5.47;2.38;;;;;;;16.58;78.88;100578.34;5036373;28;20441;-89
2021/06/26 00:10:47;;;;;;;7.07;2.40;;;;;;;16.56;78.98;100569.69;5053134;28;20031;-89
2021/06/26 00:13:13;;;;;;;7.47;2.70;;;;;;;16.49;78.87;100581.84;5052986;28;20039;-89
2021/06/26 00:15:39;;;;;;;4.68;2.17;;;;;;;16.48;77.83;100582.00;5052863;28;20013;-89
2021/06/26 00:18:05;;;;;;;7.28;2.65;;;;;;;16.41;77.63;100576.38;5052985;28;20095;-90
2021/06/26 00:20:31;;;;;;;5.38;2.22;;;;;;;16.31;77.76;100572.88;5052927;28;20032;-89
2021/06/26 00:22:56;;;;;;;6.25;2.53;;;;;;;16.17;76.96;100571.47;5031841;28;20020;-89
2021/06/26 00:25:23;;;;;;;6.00;2.75;;;;;;;16.10;77.67;100573.00;5032415;28;20037;-89
2021/06/26 00:27:49;;;;;;;4.72;2.83;;;;;;;16.13;77.18;100578.03;5032431;28;20222;-89
2021/06/26 00:30:15;;;;;;;5.82;2.88;;;;;;;16.04;77.75;100579.69;5032239;28;20026;-89
2021/06/26 00:32:42;;;;;;;9.75;2.97;;;;;;;16.06;77.45;100583.03;5032530;28;20040;-89
2021/06/26 00:35:08;;;;;;;8.05;3.05;;;;;;;16.06;76.67;100575.09;5032328;28;20388;-89
2021/06/26 00:37:34;;;;;;;9.45;3.22;;;;;;;16.06;77.21;100588.34;5033022;28;20037;-90
2021/06/26 00:39:59;;;;;;;4.68;2.80;;;;;;;16.02;77.35;100576.34;5052114;28;20021;-89
2021/06/26 00:42:24;;;;;;;5.28;2.92;;;;;;;16.04;76.86;100574.38;5051994;28;20017;-90
2021/06/26 00:44:50;;;;;;;4.93;2.60;;;;;;;15.97;77.00;100575.88;5055543;28;20033;-89
2021/06/26 00:47:15;;;;;;;4.70;3.00;;;;;;;15.89;76.61;100581.03;5055936;28;20406;-89
2021/06/26 00:49:41;;;;;;;4.38;2.95;;;;;;;15.83;76.86;100575.28;5056086;28;20606;-89
2021/06/26 00:52:08;;;;;;;8.05;3.15;;;;;;;15.72;77.18;100575.38;5055924;28;20025;-89
2021/06/26 00:54:36;;;;;;;4.55;2.97;;;;;;;15.68;77.02;100576.59;5054921;28;20017;-89
2021/06/26 00:57:02;;;;;;;4.90;3.58;;;;;;;15.54;76.59;100574.28;5055689;28;20021;-89
2021/06/26 00:59:29;;;;;;;5.45;3.25;;;;;;;15.41;76.56;100572.72;5055721;28;20021;-89
2021/06/26 01:01:54;;;;;;;5.05;3.33;;;;;;;15.47;76.94;100572.19;5055837;28;20049;-89
2021/06/26 01:04:19;;;;;;;5.88;3.38;;;;;;;15.50;76.62;100576.41;5041056;28;20447;-89
2021/06/26 01:06:45;;;;;;;8.30;3.42;;;;;;;15.50;75.98;100570.25;5035553;28;20056;-89
2021/06/26 01:09:10;;;;;;;5.68;3.25;;;;;;;15.44;76.46;100568.97;5035474;28;20500;-89
2021/06/26 01:11:36;;;;;;;4.38;3.33;;;;;;;15.34;76.63;100568.06;5035441;28;20017;-89
2021/06/26 01:14:02;;;;;;;9.88;3.50;;;;;;;15.31;76.46;100571.81;5035410;28;20494;-90
2021/06/26 01:16:27;;;;;;;7.22;3.50;;;;;;;15.14;77.11;100575.88;5035830;28;20041;-90
2021/06/26 01:18:53;;;;;;;5.90;3.75;;;;;;;15.23;76.96;100575.13;5048029;28;20061;-89
2021/06/26 01:21:18;;;;;;;5.80;3.53;;;;;;;15.24;76.49;100573.31;5055719;28;20171;-89
2021/06/26 01:23:49;;;;;;;11.07;3.92;;;;;;;15.21;77.46;100577.06;5037770;28;20589;-89
2021/06/26 01:26:16;;;;;;;4.50;3.40;;;;;;;15.23;77.30;100574.28;5035734;28;20382;-90
2021/06/26 01:28:42;;;;;;;5.47;3.10;;;;;;;15.10;77.48;100577.13;5035943;28;20034;-89
2021/06/26 01:31:07;;;;;;;7.97;4.00;;;;;;;15.03;77.29;100579.44;5035264;28;20036;-89
2021/06/26 01:33:33;;;;;;;4.43;3.50;;;;;;;14.95;78.21;100587.19;5035506;28;20026;-89
2021/06/26 01:35:59;;;;;;;4.80;3.45;;;;;;;14.89;78.39;100585.06;5035275;28;20095;-90
2021/06/26 01:38:25;;;;;;;5.45;3.17;;;;;;;14.79;77.94;100574.41;5035654;28;20057;-90
2021/06/26 01:40:50;;;;;;;5.50;3.70;;;;;;;14.73;79.07;100574.06;5035899;28;20534;-89
2021/06/26 01:43:15;;;;;;;5.80;3.75;;;;;;;14.75;79.41;100583.56;5034860;28;20100;-89
2021/06/26 01:45:41;;;;;;;4.18;3.60;;;;;;;14.75;79.17;100586.22;5035366;28;20025;-89
2021/06/26 01:48:07;;;;;;;6.53;3.80;;;;;;;14.74;78.79;100581.03;5035143;28;20451;-89
2021/06/26 01:50:33;;;;;;;5.95;3.97;;;;;;;14.53;79.63;100589.72;5034918;28;20029;-89
2021/06/26 01:53:00;;;;;;;5.10;3.83;;;;;;;14.57;80.26;100580.59;5034733;28;20505;-90
2021/06/26 01:55:25;;;;;;;7.30;4.35;;;;;;;14.68;79.03;100585.03;5035504;28;20104;-90
2021/06/26 01:57:51;;;;;;;4.50;4.10;;;;;;;14.62;78.68;100582.91;5054539;28;20056;-89
2021/06/26 02:00:19;;;;;;;5.50;4.05;;;;;;;14.66;79.03;100579.84;5054712;28;20282;-90
2021/06/26 02:02:44;;;;;;;6.05;3.85;;;;;;;14.66;79.17;100577.22;5054509;28;20035;-90
2021/06/26 02:05:11;;;;;;;8.57;4.15;;;;;;;14.63;79.49;100576.63;5054483;28;20100;-90
2021/06/26 02:07:37;;;;;;;9.05;4.22;;;;;;;14.64;81.07;100573.88;5054360;28;20067;-89
2021/06/26 02:10:05;;;;;;;6.45;4.28;;;;;;;14.72;79.94;100580.34;5054136;28;20025;-89
2021/06/26 02:12:30;;;;;;;6.53;4.55;;;;;;;14.65;81.49;100580.84;5038605;28;20054;-89
2021/06/26 02:14:56;;;;;;;5.95;4.30;;;;;;;14.71;81.70;100583.94;5054461;28;20021;-89
2021/06/26 02:17:22;;;;;;;6.93;4.72;;;;;;;14.74;81.28;100589.81;5054324;28;20021;-89
2021/06/26 02:19:48;;;;;;;6.10;4.10;;;;;;;14.72;82.15;100585.63;5054349;28;20510;-89
2021/06/26 02:22:14;;;;;;;9.77;4.75;;;;;;;14.74;83.47;100586.34;5054104;28;20086;-90
2021/06/26 02:24:40;;;;;;;8.23;4.55;;;;;;;14.82;83.27;100581.25;5054647;28;20017;-89
2021/06/26 02:27:05;;;;;;;6.63;4.30;;;;;;;14.86;83.76;100574.72;5050903;28;20382;-89
2021/06/26 02:29:31;;;;;;;7.70;5.25;;;;;;;14.94;83.50;100576.75;5034120;28;20033;-90
2021/06/26 02:31:56;;;;;;;5.75;4.47;;;;;;;14.96;82.37;100573.00;5034148;28;20019;-89
2021/06/26 02:34:22;;;;;;;6.32;4.03;;;;;;;14.95;82.00;100573.97;5034210;28;20033;-90
2021/06/26 02:36:47;;;;;;;6.78;4.70;;;;;;;14.92;83.33;100581.31;5034335;28;20033;-89
2021/06/26 02:39:13;;;;;;;9.00;4.40;;;;;;;14.89;82.66;100582.41;5016065;28;20025;-89
2021/06/26 02:41:38;;;;;;;6.18;4.35;;;;;;;14.89;82.71;100574.50;5045524;28;20025;-89
2021/06/26 02:44:04;;;;;;;5.45;4.03;;;;;;;14.81;83.24;100574.25;5053661;28;20009;-89
2021/06/26 02:46:29;;;;;;;7.40;4.82;;;;;;;14.75;84.48;100569.50;5054176;28;20032;-89
2021/06/26 02:48:55;;;;;;;10.10;5.10;;;;;;;14.74;84.93;100570.47;5053783;28;20467;-89
2021/06/26 02:51:20;;;;;;;10.00;6.35;;;;;;;14.73;85.43;100567.00;5051826;28;20711;-89
2021/06/26 02:53:45;;;;;;;6.20;5.22;;;;;;;14.91;84.33;100574.34;5053626;28;20024;-89
2021/06/26 02:56:11;;;;;;;6.20;5.60;;;;;;;14.91;84.38;100580.50;5053567;28;20033;-89
2021/06/26 02:58:36;;;;;;;6.20;5.57;;;;;;;14.82;85.10;100576.78;5053560;28;20021;-90
2021/06/26 03:01:02;;;;;;;7.40;5.97;;;;;;;14.85;85.42;100575.72;5053407;28;20353;-89
2021/06/26 03:03:28;;;;;;;6.88;5.65;;;;;;;14.83;86.01;100573.19;5047849;28;20029;-89
2021/06/26 03:05:53;;;;;;;9.05;6.30;;;;;;;14.87;86.78;100574.63;5032900;28;20055;-89
2021/06/26 03:08:20;;;;;;;8.75;6.10;;;;;;;14.89;85.97;100579.78;5033451;28;20044;-89
2021/06/26 03:10:45;;;;;;;6.10;5.50;;;;;;;14.91;85.96;100575.19;5033285;28;20022;-89
2021/06/26 03:13:11;;;;;;;6.25;5.55;;;;;;;14.94;85.83;100574.09;5033194;28;20025;-90
2021/06/26 03:15:36;;;;;;;4.50;4.07;;;;;;;14.95;85.44;100587.19;5033336;28;20032;-90
2021/06/26 03:18:02;;;;;;;5.15;4.60;;;;;;;14.97;84.98;100594.97;5036826;28;20135;-90
2021/06/26 03:20:27;;;;;;;7.55;5.18;;;;;;;14.95;85.31;100581.91;5052678;28;20017;-89
2021/06/26 03:22:53;;;;;;;8.95;5.45;;;;;;;15.01;84.78;100585.84;5053069;28;20053;-90
2021/06/26 03:25:18;;;;;;;7.63;5.60;;;;;;;15.14;83.78;100585.63;5053080;28;20036;-89
2021/06/26 03:27:44;;;;;;;7.25;5.28;;;;;;;15.11;83.42;100592.03;5052965;28;20039;-89
2021/06/26 03:30:10;;;;;;;10.43;6.10;;;;;;;15.07;83.57;100585.31;5053060;28;20083;-89
2021/06/26 03:32:35;;;;;;;7.43;5.50;;;;;;;14.99;84.22;100585.97;5052818;28;20063;-90
2021/06/26 03:35:02;;;;;;;5.65;4.88;;;;;;;14.97;84.38;100592.31;5034761;28;20044;-89
2021/06/26 03:37:27;;;;;;;6.10;4.13;;;;;;;15.01;83.63;100585.84;5032948;28;20034;-89
2021/06/26 03:39:52;;;;;;;5.93;4.00;;;;;;;14.94;82.77;100590.78;5032691;28;20028;-89
2021/06/26 03:42:18;;;;;;;8.85;4.10;;;;;;;14.90;83.57;100599.13;5032680;28;20029;-90
2021/06/26 03:44:43;;;;;;;8.68;4.22;;;;;;;14.87;83.80;100602.84;5032780;28;20017;-89
2021/06/26 03:47:09;;;;;;;6.55;4.35;;;;;;;14.86;83.33;100599.34;5032562;28;20056;-90
2021/06/26 03:49:37;;;;;;;5.43;3.90;;;;;;;14.81;82.50;100605.97;5048580;28;20032;-89
2021/06/26 03:52:03;;;;;;;7.38;5.85;;;;;;;14.75;84.47;100602.06;5052353;28;20553;-90
2021/06/26 03:54:29;;;;;;;8.50;6.88;;;;;;;14.80;84.19;100609.59;5052298;28;20108;-90
2021/06/26 03:56:54;;;;;;;7.10;6.40;;;;;;;14.77;85.44;100599.28;5052372;28;20021;-89
2021/06/26 03:59:20;;;;;;;7.57;6.43;;;;;;;14.83;84.88;100606.69;5052442;28;20387;-90
2021/06/26 04:01:45;;;;;;;12.48;7.82;;;;;;;14.95;84.41;100612.78;5052554;28;20028;-90
2021/06/26 04:04:10;;;;;;;10.82;8.60;;;;;;;14.90;85.70;100620.25;5051305;28;20052;-89
2021/06/26 04:06:36;;;;;;;11.07;8.98;;;;;;;14.91;86.65;100612.22;5052317;28;20036;-90
2021/06/26 04:09:02;;;;;;;11.02;8.45;;;;;;;14.99;86.54;100624.81;5052643;28;20449;-90
2021/06/26 04:11:28;;;;;;;16.58;9.13;;;;;;;14.99;86.88;100625.63;5051726;28;20454;-89
2021/06/26 04:13:53;;;;;;;13.50;10.25;;;;;;;14.99;88.07;100622.97;5051628;28;20045;-89
2021/06/26 04:16:18;;;;;;;11.45;8.63;;;;;;;15.20;86.90;100627.44;5052501;28;20459;-89
2021/06/26 04:18:44;;;;;;;14.35;9.63;;;;;;;15.16;87.64;100618.91;5053874;28;20033;-90
2021/06/26 04:21:09;;;;;;;16.70;10.60;;;;;;;15.18;87.68;100619.63;5056372;28;20027;-89
2021/06/26 04:23:34;;;;;;;13.15;10.45;;;;;;;15.27;87.40;100618.88;5056564;28;20063;-90
2021/06/26 04:26:00;;;;;;;12.75;10.25;;;;;;;15.32;87.47;100620.28;5056573;28;20467;-89
2021/06/26 04:28:25;;;;;;;15.05;11.43;;;;;;;15.27;87.58;100626.78;5056223;28;20035;-89
2021/06/26 04:30:50;;;;;;;16.88;11.32;;;;;;;15.36;87.47;100626.97;5037694;28;20421;-89
2021/06/26 04:33:16;;;;;;;17.17;11.80;;;;;;;15.49;87.13;100624.97;5036125;28;20025;-89
2021/06/26 04:35:41;;;;;;;16.13;11.73;;;;;;;15.39;87.95;100629.38;5036470;28;20030;-89
2021/06/26 04:38:07;;;;;;;14.18;10.65;;;;;;;15.52;87.87;100629.16;5036168;28;20044;-88
2021/06/26 04:40:32;;;;;;;14.55;10.73;;;;;;;15.55;87.62;100631.56;5036203;28;20503;-90
2021/06/26 04:42:58;;;;;;;13.55;10.75;;;;;;;15.50;88.51;100641.69;5036224;28;20075;-89
2021/06/26 04:45:23;;;;;;;14.98;11.35;;;;;;;15.63;87.36;100639.69;5036143;28;20040;-89
2021/06/26 04:47:49;;;;;;;18.10;10.85;;;;;;;15.67;86.32;100631.34;5055913;28;20167;-89
2021/06/26 04:50:14;;;;;;;19.50;10.93;;;;;;;15.75;86.70;100636.00;5037473;28;20162;-89
2021/06/26 04:52:42;;;;;;;14.38;10.95;;;;;;;15.79;86.93;100632.13;5055584;28;20110;-89
2021/06/26 04:55:08;;;;;;;17.75;11.10;;;;;;;15.77;87.53;100635.88;5055740;28;20131;-89
2021/06/26 04:57:34;;;;;;;12.82;10.13;;;;;;;15.95;86.50;100630.81;5055995;28;20067;-89
2021/06/26 04:59:59;;;;;;;14.05;10.25;;;;;;;15.94;86.60;100634.44;5055361;28;20025;-89
2021/06/26 05:02:25;;;;;;;13.30;10.25;;;;;;;15.97;86.49;100634.16;5055199;28;20467;-89
2021/06/26 05:04:50;;;;;;;13.50;9.98;;;;;;;16.08;86.32;100638.53;5054674;28;20410;-89
2021/06/26 05:07:16;;;;;;;16.88;11.77;;;;;;;16.14;85.98;100636.16;5055205;28;20032;-89
2021/06/26 05:09:41;;;;;;;14.30;11.35;;;;;;;16.18;85.69;100639.38;5055348;28;20495;-89
2021/06/26 05:12:07;;;;;;;15.75;11.93;;;;;;;16.26;85.45;100635.09;5055438;28;20032;-89
2021/06/26 05:14:32;;;;;;;17.40;11.43;;;;;;;16.31;85.83;100633.84;5055382;28;20031;-89
2021/06/26 05:16:58;;;;;;;18.00;10.27;;;;;;;16.39;84.56;100631.34;5055135;28;20043;-90
2021/06/26 05:19:23;;;;;;;15.95;10.45;;;;;;;16.59;83.74;100632.22;5046879;28;20021;-89
2021/06/26 05:21:49;;;;;;;13.73;10.60;;;;;;;16.63;83.35;100646.88;5055106;28;20439;-89
2021/06/26 05:24:14;;;;;;;16.20;11.95;;;;;;;16.58;83.92;100646.44;5055169;28;20025;-89
2021/06/26 05:26:40;;;;;;;12.90;10.60;;;;;;;16.55;83.85;100650.22;5055433;28;20023;-89
2021/06/26 05:29:06;;;;;;;16.33;11.00;;;;;;;16.66;83.72;100647.41;5054805;28;20478;-89
2021/06/26 05:31:32;;;;;;;13.25;10.15;;;;;;;16.74;83.89;100651.22;5054943;28;20112;-89
2021/06/26 05:33:58;;;;;;;14.88;10.63;;;;;;;16.64;84.34;100649.38;5054744;28;20029;-89
2021/06/26 05:36:23;;;;;;;12.10;10.43;;;;;;;16.73;84.41;100652.19;5048422;28;20052;-89
2021/06/26 05:38:49;;;;;;;14.82;10.50;;;;;;;16.71;84.46;100657.63;5034758;28;20064;-89
2021/06/26 05:41:14;;;;;;;11.65;9.82;;;;;;;16.65;84.84;100653.72;5034723;28;20133;-89
2021/06/26 05:43:40;;;;;;;12.55;9.55;;;;;;;16.76;84.19;100660.69;5034656;28;20032;-89
2021/06/26 05:46:05;;;;;;;15.90;9.85;;;;;;;16.90;83.62;100661.28;5034477;28;20037;-89
2021/06/26 05:48:30;;;;;;;18.27;9.85;;;;;;;16.84;83.62;100662.69;5019898;28;20068;-89
2021/06/26 05:50:56;;;;;;;12.45;9.77;;;;;;;17.00;83.17;100664.78;5053830;28;20063;-89
2021/06/26 05:53:22;;;;;;;18.33;9.18;;;;;;;16.93;83.37;100661.03;5036337;28;20029;-89
2021/06/26 05:55:59;;;;;;;13.77;9.23;;;;;;;16.64;84.87;100667.94;5054448;28;20108;-89
2021/06/26 05:58:36;;;;;;;13.35;9.02;;;;;;;16.96;83.21;100672.22;5054187;28;20549;-89
2021/06/26 06:01:06;;;;;;;13.55;8.65;;;;;;;17.07;82.82;100673.03;5053931;28;20041;-89
2021/06/26 06:03:32;;;;;;;13.77;8.50;;;;;;;17.11;82.84;100671.78;5048080;28;20159;-89
2021/06/26 06:05:58;;;;;;;13.00;8.48;;;;;;;17.29;82.13;100670.09;5034008;28;20032;-89
2021/06/26 06:08:23;;;;;;;9.13;8.23;;;;;;;17.39;81.25;100673.56;5033997;28;20034;-89
2021/06/26 06:10:49;;;;;;;9.93;7.97;;;;;;;17.70;79.49;100675.19;5034003;28;20103;-89
2021/06/26 06:13:16;;;;;;;10.23;8.80;;;;;;;17.62;79.42;100682.03;5038130;28;20283;-88
2021/06/26 06:15:43;;;;;;;11.05;7.93;;;;;;;17.80;78.59;100686.63;5053711;28;20047;-89
2021/06/26 06:18:09;;;;;;;9.23;8.15;;;;;;;17.73;78.44;100681.06;5053845;28;20063;-88
2021/06/26 06:20:35;;;;;;;9.43;7.28;;;;;;;17.72;78.73;100679.38;5053666;28;20056;-88
2021/06/26 06:23:01;;;;;;;9.65;7.55;;;;;;;17.82;78.79;100690.78;5053558;28;20114;-88
2021/06/26 06:25:26;;;;;;;13.90;7.80;;;;;;;17.76;78.89;100691.38;5053649;28;20036;-88
2021/06/26 06:27:52;;;;;;;12.68;7.90;;;;;;;17.76;78.70;100688.72;5051654;28;20037;-88
2021/06/26 06:30:17;;;;;;;14.32;7.50;;;;;;;17.94;77.78;100685.34;5053332;28;20025;-88
2021/06/26 06:32:43;;;;;;;10.07;7.47;;;;;;;17.87;77.53;100694.88;5053031;28;20065;-88
2021/06/26 06:35:09;;;;;;;11.38;7.00;;;;;;;17.89;77.79;100691.09;5053315;28;20107;-88
2021/06/26 06:37:35;;;;;;;12.43;7.35;;;;;;;18.04;76.88;100694.13;5052959;28;20037;-88
2021/06/26 06:40:01;;;;;;;11.35;7.22;;;;;;;17.88;76.34;100691.25;5053242;28;20525;-88
2021/06/26 06:42:26;;;;;;;8.77;6.10;;;;;;;18.16;75.31;100702.75;5019345;28;20116;-88
2021/06/26 06:44:51;;;;;;;12.52;6.75;;;;;;;18.36;74.68;100690.19;5051291;28;20079;-88
2021/06/26 06:47:17;;;;;;;8.25;6.25;;;;;;;18.45;74.10;100697.28;5052851;28;20083;-88
2021/06/26 06:49:42;;;;;;;10.85;6.95;;;;;;;18.64;72.96;100693.66;5035172;28;20024;-88
2021/06/26 06:52:08;;;;;;;8.98;6.63;;;;;;;18.83;72.02;100690.91;5052522;28;20032;-88
2021/06/26 06:54:34;;;;;;;8.05;6.68;;;;;;;18.89;71.62;100689.47;5047361;28;20088;-89
2021/06/26 06:56:59;;;;;;;8.73;6.93;;;;;;;19.07;72.04;100696.63;5039174;28;20025;-89
2021/06/26 06:59:25;;;;;;;8.75;6.20;;;;;;;19.16;70.41;100698.38;5048974;28;20067;-89
2021/06/26 07:01:50;;;;;;;7.03;6.28;;;;;;;19.28;69.63;100691.81;5044359;28;20040;-89
2021/06/26 07:04:15;;;;;;;8.95;5.93;;;;;;;19.28;68.97;100694.47;5055962;28;20107;-89
2021/06/26 07:06:41;;;;;;;8.80;6.30;;;;;;;19.18;68.87;100693.72;5047371;28;20028;-89
2021/06/26 07:09:06;;;;;;;8.95;6.28;;;;;;;19.27;68.43;100689.31;5052294;28;20021;-89
2021/06/26 07:11:31;;;;;;;6.22;5.50;;;;;;;19.26;68.63;100695.63;5052440;28;20025;-89
2021/06/26 07:13:57;;;;;;;6.88;5.90;;;;;;;19.44;68.24;100698.28;5052188;28;20025;-89
2021/06/26 07:16:22;;;;;;;11.50;6.10;;;;;;;19.32;68.26;100692.34;5050781;28;20033;-89
2021/06/26 07:18:48;;;;;;;9.30;6.10;;;;;;;19.90;67.44;100688.28;5052078;28;20025;-89
2021/06/26 07:21:13;;;;;;;9.77;5.70;;;;;;;19.78;66.33;100688.53;5052183;28;20368;-89
2021/06/26 07:23:38;;;;;;;8.13;6.07;;;;;;;19.84;66.27;100694.22;5052517;28;20048;-88
2021/06/26 07:26:04;;;;;;;8.15;6.05;;;;;;;19.81;65.55;100685.56;5051981;28;20100;-89
2021/06/26 07:28:29;;;;;;;9.02;5.88;;;;;;;20.18;64.43;100687.09;5052011;28;20059;-89
2021/06/26 07:30:55;;;;;;;12.02;6.10;;;;;;;21.69;60.12;100691.50;5066541;28;20068;-89
2021/06/26 07:33:21;;;;;;;9.93;5.88;;;;;;;21.73;57.21;100677.63;5071861;28;20048;-89
2021/06/26 07:35:47;;;;;;;6.03;4.35;;;;;;;21.88;57.34;100680.44;5057119;28;20075;-89
2021/06/26 07:38:12;;;;;;;7.55;5.22;;;;;;;21.98;55.67;100680.25;5052093;28;20055;-89
2021/06/26 07:40:37;;;;;;;5.00;4.20;;;;;;;23.19;54.51;100686.16;5054639;28;20491;-88
2021/06/26 07:43:03;;;;;;;7.95;4.35;;;;;;;23.78;50.68;100672.88;5061330;28;20033;-88
2021/06/26 07:45:28;;;;;;;5.63;4.50;;;;;;;23.31;51.67;100677.47;5052135;28;20112;-89
2021/06/26 07:47:53;;;;;;;6.65;4.45;;;;;;;22.97;51.92;100669.88;5051374;28;20474;-90
2021/06/26 07:50:19;;;;;;;5.97;4.13;;;;;;;22.69;52.61;100677.56;5051587;28;20033;-90
2021/06/26 07:52:44;;;;;;;6.90;4.03;;;;;;;22.76;51.71;100678.53;5050639;28;20028;-89
2021/06/26 07:55:10;;;;;;;5.57;4.22;;;;;;;23.16;51.79;100674.78;5050812;28;20390;-89
2021/06/26 07:57:36;;;;;;;6.13;3.75;;;;;;;22.58;51.68;100674.31;5051646;28;20040;-89
2021/06/26 08:00:07;;;;;;;7.80;3.88;;;;;;;22.44;51.92;100690.28;5049745;28;20025;-90
2021/06/26 08:02:33;;;;;;;6.22;3.95;;;;;;;22.22;51.66;100673.97;5051534;28;20021;-89
2021/06/26 08:04:58;;;;;;;5.22;3.30;;;;;;;21.98;51.18;100675.72;5051861;28;20170;-89
2021/06/26 08:07:23;;;;;;;10.93;4.03;;;;;;;21.88;52.20;100671.56;5051480;28;20083;-90
2021/06/26 08:09:49;;;;;;;5.72;3.95;;;;;;;21.82;53.12;100675.78;5051531;28;20037;-90
2021/06/26 08:12:18;;;;;;;5.70;4.03;;;;;;;21.83;53.64;100668.59;5051035;28;20159;-89
2021/06/26 08:14:44;;;;;;;6.35;3.90;;;;;;;22.00;53.53;100680.91;5036725;28;20029;-89
2021/06/26 08:17:14;;;;;;;4.63;3.72;;;;;;;22.57;52.75;100678.00;5045406;28;20049;-90
2021/06/26 08:19:40;;;;;;;6.18;3.38;;;;;;;23.54;50.79;100672.09;5043250;28;20505;-90
2021/06/26 08:22:06;;;;;;;5.63;3.50;;;;;;;23.27;50.40;100676.19;5050466;28;20112;-90
2021/06/26 08:24:35;;;;;;;4.50;3.00;;;;;;;23.36;50.31;100680.47;5044422;28;20163;-89
2021/06/26 08:27:02;;;;;;;4.13;2.90;;;;;;;23.29;49.24;100679.50;5033738;28;20033;-90
2021/06/26 08:29:28;;;;;;;3.58;2.35;;;;;;;23.13;50.02;100677.81;5045382;28;20113;-90
2021/06/26 08:31:53;;;;;;;6.50;3.15;;;;;;;22.96;49.46;100674.38;5061347;28;20566;-90
2021/06/26 08:34:19;;;;;;;3.90;2.83;;;;;;;22.54;50.63;100673.00;5051728;28;21175;-90
2021/06/26 08:36:44;;;;;;;8.65;3.10;;;;;;;22.41;50.49;100678.06;5032165;28;20029;-90
2021/06/26 08:39:10;;;;;;;5.03;3.13;;;;;;;22.30;50.46;100673.13;5047683;28;20025;-90
2021/06/26 08:41:43;;;;;;;4.32;3.00;;;;;;;23.12;51.38;100667.25;5051167;28;20111;-90
2021/06/26 08:44:11;;;;;;;7.00;2.75;;;;;;;23.79;48.06;100660.28;5050544;28;20032;-90
2021/06/26 08:46:45;;;;;;;5.90;2.97;;;;;;;23.78;47.68;100662.16;5049948;28;20052;-90
2021/06/26 08:49:11;;;;;;;5.57;2.67;;;;;;;23.61;48.01;100666.00;5050866;28;20107;-89
2021/06/26 08:51:37;;;;;;;8.32;2.85;;;;;;;23.48;47.69;100656.75;5035404;28;20478;-89
2021/06/26 08:54:03;;;;;;;3.30;2.63;;;;;;;24.43;47.17;100649.78;5039450;28;20116;-90
2021/06/26 08:56:29;;;;;;;4.93;2.25;;;;;;;24.75;45.82;100653.03;5031387;28;20028;-90
2021/06/26 08:58:54;;;;;;;3.47;2.03;;;;;;;24.65;44.48;100657.88;5039771;28;20024;-91
2021/06/26 09:01:19;;;;;;;4.20;1.77;;;;;;;24.51;44.04;100657.75;5045528;28;20079;-90
2021/06/26 09:03:45;;;;;;;3.75;2.22;;;;;;;24.27;44.13;100672.28;5054325;28;20390;-94
2021/06/26 09:06:10;;;;;;;3.85;2.08;;;;;;;24.70;43.50;100653.63;5052956;28;20150;-95
2021/06/26 09:08:47;;;;;;;3.58;1.77;;;;;;;24.75;43.08;100650.34;5054524;28;20075;-91
2021/06/26 09:11:17;;;;;;;3.15;2.13;;;;;;;25.11;42.01;100652.13;5054287;28;20027;-92
2021/06/26 09:13:43;;;;;;;5.68;1.95;;;;;;;25.15;42.00;100645.31;5054476;28;20060;-92
2021/06/26 09:16:11;;;;;;;2.90;1.95;;;;;;;25.55;41.31;100651.00;5054356;28;20444;-92
2021/06/26 09:18:48;;;;;;;2.65;2.00;;;;;;;26.07;40.72;100656.94;5054164;28;20090;-93
2021/06/26 09:21:33;;;;;;;2.67;1.85;;;;;;;26.21;39.63;100647.88;5053989;28;20028;-91
2021/06/26 09:24:08;;;;;;;3.10;1.75;;;;;;;27.19;39.46;100652.88;5044603;28;20014;-92
2021/06/26 09:26:35;;;;;;;2.90;1.98;;;;;;;28.40;36.32;100653.44;5053222;28;20112;-92
2021/06/26 09:29:15;;;;;;;4.50;1.90;;;;;;;29.27;34.88;100646.41;5036061;28;20372;-93
2021/06/26 09:32:11;;;;;;;3.87;2.20;;;;;;;29.07;33.50;100654.66;5053058;28;20090;-93
2021/06/26 09:34:44;;;;;;;5.45;2.00;;;;;;;29.93;31.46;100664.91;5026478;28;20045;-90
2021/06/26 09:37:21;;;;;;;2.10;1.00;;;;;;;30.66;31.16;100668.56;5035805;28;20087;-90
2021/06/26 09:39:47;;;;;;;3.17;1.52;;;;;;;30.16;31.41;100662.34;5051872;28;20386;-90
2021/06/26 09:42:20;;;;;;;2.75;1.25;;;;;;;30.65;31.17;100659.63;5054082;28;20100;-91
2021/06/26 09:45:08;;;;;;;2.53;1.50;;;;;;;31.56;29.24;100654.81;5054005;28;20025;-90
2021/06/26 09:47:41;;;;;;;4.55;1.40;;;;;;;32.30;28.10;100656.91;5053945;28;20055;-90
2021/06/26 09:50:20;;;;;;;2.30;1.40;;;;;;;32.56;27.81;100654.69;5053899;28;20037;-91
2021/06/26 09:52:49;;;;;;;2.45;1.23;;;;;;;32.39;27.85;100650.03;5053860;28;20029;-91
2021/06/26 09:55:20;;;;;;;2.75;1.30;;;;;;;32.65;27.34;100653.25;5053828;28;20021;-91
2021/06/26 09:57:47;;;;;;;7.50;1.60;;;;;;;32.91;26.33;100649.06;5039525;28;20025;-92
2021/06/26 10:00:15;;;;;;;3.13;1.30;;;;;;;31.70;27.77;100657.28;5036704;28;20364;-91
2021/06/26 10:02:42;;;;;;;3.20;1.42;;;;;;;31.06;28.44;100647.09;5053898;28;20108;-91
2021/06/26 10:05:08;;;;;;;1.55;1.10;;;;;;;30.67;29.26;100651.25;5054061;28;20032;-90
2021/06/26 10:07:36;;;;;;;2.15;0.98;;;;;;;31.09;28.90;100656.69;5055030;28;20402;-92
2021/06/26 10:10:01;;;;;;;5.15;1.20;;;;;;;31.28;28.49;100651.97;5036966;28;20483;-90
2021/06/26 10:12:26;;;;;;;1.98;0.95;;;;;;;32.08;27.44;100642.34;5053409;28;20031;-91
2021/06/26 10:14:54;;;;;;;1.17;0.90;;;;;;;32.68;24.43;100652.72;5053226;28;20032;-92
2021/06/26 10:17:21;;;;;;;2.45;1.00;;;;;;;32.39;24.67;100654.66;5051272;28;20032;-90
2021/06/26 10:19:48;;;;;;;1.10;1.00;;;;;;;32.61;24.46;100665.66;5052723;28;20017;-90
2021/06/26 10:22:14;;;;;;;2.60;1.23;;;;;;;32.87;24.05;100657.97;5048118;28;20057;-92
2021/06/26 10:24:42;;;;;;;2.97;1.25;;;;;;;33.22;24.73;100654.16;5028367;28;20064;-91
2021/06/26 10:27:18;;;;;;;2.15;0.90;;;;;;;33.47;24.33;100660.00;5037853;28;20060;-91
2021/06/26 10:29:43;;;;;;;2.13;1.27;;;;;;;31.80;25.64;100662.94;5040415;28;20033;-92
2021/06/26 10:32:11;;;;;;;3.78;1.20;;;;;;;31.70;26.33;100671.69;5044732;28;20047;-90
2021/06/26 10:34:44;;;;;;;3.47;0.93;;;;;;;32.03;26.23;100667.50;5052418;28;20021;-91
2021/06/26 10:37:19;;;;;;;3.83;1.27;;;;;;;31.64;26.17;100659.06;5052500;28;20039;-91
2021/06/26 10:39:46;;;;;;;3.90;1.17;;;;;;;30.56;26.95;100663.72;5029297;28;20094;-90
2021/06/26 10:42:17;;;;;;;2.15;0.90;;;;;;;31.23;26.86;100672.47;5040699;28;20021;-91
2021/06/26 10:44:45;;;;;;;5.53;1.35;;;;;;;31.37;25.68;100669.53;5049185;28;20028;-90
2021/06/26 10:47:12;;;;;;;1.52;1.13;;;;;;;31.47;25.67;100661.66;5052393;28;20033;-91
2021/06/26 10:49:38;;;;;;;2.28;1.00;;;;;;;32.04;25.58;100649.34;5052317;28;20070;-91
2021/06/26 10:52:19;;;;;;;3.85;1.20;;;;;;;32.20;24.95;100662.16;5052634;28;20101;-92
2021/06/26 10:54:56;;;;;;;2.72;1.50;;;;;;;32.52;25.02;100659.75;5052318;28;20021;-89
2021/06/26 10:57:22;;;;;;;1.63;1.15;;;;;;;32.99;24.07;100648.63;5052772;28;20036;-90
2021/06/26 11:00:02;;;;;;;2.50;1.00;;;;;;;33.94;24.50;100639.66;5052732;28;20036;-90
2021/06/26 11:02:44;;;;;;;2.90;1.10;;;;;;;33.14;23.22;100650.81;5051437;28;20029;-91
2021/06/26 11:05:12;;;;;;;2.13;0.93;;;;;;;32.57;23.09;100653.63;5051764;28;20061;-90
2021/06/26 11:07:38;;;;;;;3.60;0.73;;;;;;;32.94;24.43;100653.16;5045424;28;20505;-91
2021/06/26 11:10:12;;;;;;;5.65;1.13;;;;;;;32.28;23.80;100661.75;5047067;28;20104;-89
2021/06/26 11:12:47;;;;;;;2.97;1.20;;;;;;;31.37;24.90;100654.09;5044097;28;20049;-89
2021/06/26 11:15:14;;;;;;;1.77;0.82;;;;;;;30.39;25.56;100652.69;5033941;28;20076;-89
2021/06/26 11:17:41;;;;;;;2.13;1.00;;;;;;;30.17;26.23;100652.31;5046429;28;20033;-89
2021/06/26 11:20:11;;;;;;;2.67;1.15;;;;;;;30.28;25.74;100661.56;5054361;28;20098;-88